Time;durP1;ratioP1;P1;durP2;ratioP2;P2;SDS_P1;SDS_P2;PMS_P1;PMS_P2;Temp;Humidity;BMP_temperature;BMP_pressure;BME280_temperature;BME280_humidity;BME280_pressure;Samples;Min_cycle;Max_cycle;Signal;HPM_P1;HPM_P2
2023/04/09 00:02:29;;;;;;;4.82;4.00;;;;;;;;;;8296127;28;20735;-62
2023/04/09 00:06:30;;;;;;;4.47;3.72;;;;;;;;;;8295938;28;20510;-62
2023/04/09 00:10:30;;;;;;;4.87;3.73;;;;;;;;;;8288097;28;20017;-61
2023/04/09 00:14:30;;;;;;;5.32;4.00;;;;;;;;;;8297012;28;20294;-61
2023/04/09 00:18:30;;;;;;;4.63;3.67;;;;;;;;;;8298829;28;20044;-61
2023/04/09 00:22:30;;;;;;;4.18;3.70;;;;;;;;;;8299112;28;20041;-61
2023/04/09 00:26:31;;;;;;;5.68;4.30;;;;;;;;;;8297908;28;20060;-61
2023/04/09 00:30:31;;;;;;;6.05;5.00;;;;;;;;;;8298045;28;20038;-61
2023/04/09 00:34:31;;;;;;;7.15;5.28;;;;;;;;;;8298242;28;20025;-62
2023/04/09 00:38:31;;;;;;;9.43;5.60;;;;;;;;;;8297001;28;20048;-61
2023/04/09 00:42:32;;;;;;;6.68;4.57;;;;;;;;;;8299788;28;20107;-62
2023/04/09 00:46:32;;;;;;;8.65;5.00;;;;;;;;;;8299544;28;20234;-61
2023/04/09 00:50:32;;;;;;;6.75;4.60;;;;;;;;;;8298819;28;20033;-61
2023/04/09 00:54:32;;;;;;;6.93;4.65;;;;;;;;;;8297644;28;20029;-62
2023/04/09 00:58:33;;;;;;;7.07;4.53;;;;;;;;;;8299883;28;20064;-61
2023/04/09 01:02:33;;;;;;;6.65;4.55;;;;;;;;;;8295641;28;20041;-61
2023/04/09 01:06:42;;;;;;;8.80;5.65;;;;;;;;;;8298136;28;20040;-61
2023/04/09 01:10:45;;;;;;;6.78;4.75;;;;;;;;;;8298867;28;20009;-62
2023/04/09 01:14:53;;;;;;;6.68;4.95;;;;;;;;;;8302536;28;20021;-61
2023/04/09 01:18:54;;;;;;;6.75;4.63;;;;;;;;;;8300041;28;20158;-61
2023/04/09 01:23:04;;;;;;;5.30;4.22;;;;;;;;;;8303384;28;20029;-61
2023/04/09 01:27:05;;;;;;;7.47;4.88;;;;;;;;;;8300089;28;20022;-61
2023/04/09 01:31:07;;;;;;;6.32;4.32;;;;;;;;;;8301657;28;21085;-61
2023/04/09 01:35:08;;;;;;;6.43;4.35;;;;;;;;;;8302174;28;20504;-61
2023/04/09 01:39:09;;;;;;;5.90;4.20;;;;;;;;;;8302780;28;20117;-61
2023/04/09 01:43:09;;;;;;;7.00;5.03;;;;;;;;;;8302150;28;20021;-61
2023/04/09 01:47:10;;;;;;;9.18;4.93;;;;;;;;;;8303501;28;20033;-61
2023/04/09 01:51:12;;;;;;;8.32;5.25;;;;;;;;;;8301022;28;20028;-61
2023/04/09 01:55:13;;;;;;;7.80;5.43;;;;;;;;;;8303165;28;20715;-61
2023/04/09 01:59:13;;;;;;;7.65;5.22;;;;;;;;;;8287148;28;20087;-61
2023/04/09 02:03:19;;;;;;;9.05;5.13;;;;;;;;;;8301906;28;20681;-61
2023/04/09 02:07:25;;;;;;;7.28;5.38;;;;;;;;;;8303099;28;20037;-61
2023/04/09 02:11:26;;;;;;;8.32;5.35;;;;;;;;;;8302226;28;20111;-61
2023/04/09 02:15:27;;;;;;;8.48;5.07;;;;;;;;;;8302890;28;20043;-61
2023/04/09 02:19:43;;;;;;;6.07;4.95;;;;;;;;;;8301707;28;20053;-61
2023/04/09 02:23:43;;;;;;;9.05;6.32;;;;;;;;;;8300486;28;20469;-61
2023/04/09 02:27:43;;;;;;;7.25;5.53;;;;;;;;;;8301754;28;20059;-61
2023/04/09 02:31:44;;;;;;;7.40;5.13;;;;;;;;;;8301173;28;20444;-61
2023/04/09 02:35:44;;;;;;;8.85;6.05;;;;;;;;;;8301319;28;20020;-61
2023/04/09 02:39:44;;;;;;;5.93;4.83;;;;;;;;;;8300860;28;20461;-61
2023/04/09 02:43:44;;;;;;;6.45;5.00;;;;;;;;;;8301332;28;20915;-62
2023/04/09 02:47:45;;;;;;;8.82;5.68;;;;;;;;;;8300421;28;20036;-62
2023/04/09 02:51:45;;;;;;;8.00;5.70;;;;;;;;;;8302586;28;20391;-62
2023/04/09 02:55:45;;;;;;;7.25;5.45;;;;;;;;;;8301404;28;20025;-61
2023/04/09 02:59:45;;;;;;;7.65;5.07;;;;;;;;;;8297199;28;20068;-61
2023/04/09 03:03:46;;;;;;;6.55;4.93;;;;;;;;;;8299752;28;20757;-61
2023/04/09 03:07:46;;;;;;;8.02;5.65;;;;;;;;;;8298466;28;20029;-62
2023/04/09 03:11:46;;;;;;;6.57;5.20;;;;;;;;;;8299664;28;20806;-61
2023/04/09 03:15:50;;;;;;;6.50;5.00;;;;;;;;;;8298002;28;20846;-61
2023/04/09 03:19:50;;;;;;;7.40;5.53;;;;;;;;;;8299060;28;20111;-61
2023/04/09 03:23:50;;;;;;;8.60;5.30;;;;;;;;;;8298604;28;20086;-62
2023/04/09 03:27:50;;;;;;;11.25;7.25;;;;;;;;;;8297577;28;20033;-62
2023/04/09 03:31:50;;;;;;;10.90;7.10;;;;;;;;;;8298286;28;20073;-61
2023/04/09 03:35:51;;;;;;;10.57;6.63;;;;;;;;;;8297239;28;20938;-62
2023/04/09 03:39:51;;;;;;;7.97;5.60;;;;;;;;;;8298148;28;20021;-62
2023/04/09 03:43:51;;;;;;;7.93;6.07;;;;;;;;;;8297715;28;20582;-61
2023/04/09 03:47:51;;;;;;;9.80;6.60;;;;;;;;;;8298358;28;20065;-62
2023/04/09 03:51:51;;;;;;;9.50;6.60;;;;;;;;;;8298799;28;20029;-61
2023/04/09 03:55:51;;;;;;;7.68;6.05;;;;;;;;;;8298262;28;20060;-61
2023/04/09 03:59:52;;;;;;;9.60;6.28;;;;;;;;;;8296326;28;20585;-61
2023/04/09 04:03:52;;;;;;;7.80;6.07;;;;;;;;;;8298764;28;20032;-62
2023/04/09 04:07:52;;;;;;;9.15;6.07;;;;;;;;;;8299596;28;20060;-62
2023/04/09 04:11:52;;;;;;;8.02;5.85;;;;;;;;;;8299370;28;20056;-62
2023/04/09 04:15:53;;;;;;;8.53;5.70;;;;;;;;;;8298521;28;20049;-62
2023/04/09 04:19:53;;;;;;;9.18;5.85;;;;;;;;;;8298805;28;20252;-62
2023/04/09 04:23:53;;;;;;;9.07;6.18;;;;;;;;;;8298016;28;20072;-61
2023/04/09 04:27:53;;;;;;;8.68;6.03;;;;;;;;;;8299678;28;20056;-62
2023/04/09 04:31:54;;;;;;;9.20;6.25;;;;;;;;;;8298484;28;20126;-61
2023/04/09 04:36:02;;;;;;;11.07;6.53;;;;;;;;;;8298969;28;20167;-61
2023/04/09 04:40:04;;;;;;;9.65;6.35;;;;;;;;;;8301183;28;20029;-62
2023/04/09 04:44:04;;;;;;;10.10;7.10;;;;;;;;;;8298783;28;20035;-62
2023/04/09 04:48:04;;;;;;;12.80;8.05;;;;;;;;;;8303532;28;20156;-62
2023/04/09 04:52:05;;;;;;;11.38;7.32;;;;;;;;;;8306871;28;20033;-61
2023/04/09 04:56:05;;;;;;;10.73;6.95;;;;;;;;;;8306733;28;20028;-61
2023/04/09 05:00:06;;;;;;;11.38;7.75;;;;;;;;;;8305136;28;20395;-61
2023/04/09 05:04:06;;;;;;;9.85;6.47;;;;;;;;;;8304575;28;20097;-61
2023/04/09 05:08:06;;;;;;;9.48;6.18;;;;;;;;;;8304068;28;20025;-61
2023/04/09 05:12:06;;;;;;;7.40;5.55;;;;;;;;;;8304083;28;20060;-61
2023/04/09 05:16:07;;;;;;;7.63;5.60;;;;;;;;;;8304594;28;20095;-61
2023/04/09 05:20:07;;;;;;;7.25;5.22;;;;;;;;;;8303804;28;20025;-61
2023/04/09 05:24:07;;;;;;;8.40;6.10;;;;;;;;;;8304231;28;20033;-61
2023/04/09 05:28:10;;;;;;;6.82;5.15;;;;;;;;;;8303914;28;20051;-61
2023/04/09 05:32:10;;;;;;;7.35;5.65;;;;;;;;;;8304305;28;20037;-61
2023/04/09 05:36:14;;;;;;;8.55;6.18;;;;;;;;;;8302740;28;21158;-61
2023/04/09 05:40:14;;;;;;;9.77;6.90;;;;;;;;;;8305162;28;20029;-61
2023/04/09 05:44:14;;;;;;;10.32;7.40;;;;;;;;;;8302649;28;20525;-61
2023/04/09 05:48:17;;;;;;;11.13;8.75;;;;;;;;;;8300457;28;20045;-61
2023/04/09 05:52:17;;;;;;;10.90;8.00;;;;;;;;;;8300541;28;20044;-61
2023/04/09 05:56:17;;;;;;;10.30;7.30;;;;;;;;;;8300456;28;20468;-61
2023/04/09 06:00:17;;;;;;;10.50;7.07;;;;;;;;;;8300558;28;20033;-61
2023/04/09 06:04:18;;;;;;;12.53;7.90;;;;;;;;;;8305150;28;20012;-61
2023/04/09 06:08:18;;;;;;;14.40;9.20;;;;;;;;;;8301249;28;20280;-61
2023/04/09 06:12:18;;;;;;;12.32;8.38;;;;;;;;;;8301699;28;20780;-62
2023/04/09 06:16:18;;;;;;;12.57;9.18;;;;;;;;;;8303985;28;20045;-61
2023/04/09 06:20:18;;;;;;;14.65;10.43;;;;;;;;;;8299699;28;20065;-61
2023/04/09 06:24:19;;;;;;;14.32;9.90;;;;;;;;;;8303398;28;20540;-61
2023/04/09 06:28:20;;;;;;;13.57;9.38;;;;;;;;;;8302542;28;20486;-61
2023/04/09 06:32:20;;;;;;;12.30;8.27;;;;;;;;;;8302273;28;20041;-61
2023/04/09 06:36:20;;;;;;;12.60;7.75;;;;;;;;;;8302507;28;20140;-61
2023/04/09 06:40:22;;;;;;;11.23;7.82;;;;;;;;;;8299059;28;20045;-61
2023/04/09 06:44:23;;;;;;;11.15;7.85;;;;;;;;;;8303102;28;20079;-62
2023/04/09 06:48:23;;;;;;;11.07;7.93;;;;;;;;;;8301751;28;20037;-61
2023/04/09 06:52:23;;;;;;;11.88;7.97;;;;;;;;;;8300195;28;20032;-61
2023/04/09 06:56:23;;;;;;;12.90;8.38;;;;;;;;;;8302823;28;20037;-62
2023/04/09 07:00:24;;;;;;;11.07;7.65;;;;;;;;;;8300284;28;20093;-62
2023/04/09 07:04:24;;;;;;;12.40;8.18;;;;;;;;;;8300104;28;20025;-62
2023/04/09 07:08:24;;;;;;;10.17;7.27;;;;;;;;;;8301551;28;20021;-62
2023/04/09 07:12:31;;;;;;;13.35;8.95;;;;;;;;;;8300174;28;20275;-62
2023/04/09 07:16:31;;;;;;;14.85;10.40;;;;;;;;;;8301672;28;20040;-62
2023/04/09 07:20:33;;;;;;;13.55;9.80;;;;;;;;;;8296355;28;20025;-62
2023/04/09 07:24:33;;;;;;;13.63;10.02;;;;;;;;;;8299206;28;20018;-62
2023/04/09 07:28:33;;;;;;;15.15;10.40;;;;;;;;;;8300878;28;20029;-62
2023/04/09 07:32:33;;;;;;;13.95;10.20;;;;;;;;;;8298840;28;20037;-62
2023/04/09 07:36:34;;;;;;;12.52;10.13;;;;;;;;;;8298186;28;20025;-63
2023/04/09 07:40:35;;;;;;;12.93;10.50;;;;;;;;;;8300070;28;20126;-62
2023/04/09 07:44:35;;;;;;;12.80;10.38;;;;;;;;;;8299344;28;20342;-62
2023/04/09 07:48:36;;;;;;;12.25;9.48;;;;;;;;;;8297737;28;20065;-63
2023/04/09 07:52:36;;;;;;;12.40;10.18;;;;;;;;;;8298322;28;20025;-63
2023/04/09 07:56:36;;;;;;;12.63;10.47;;;;;;;;;;8298315;28;20107;-63
2023/04/09 08:00:36;;;;;;;13.18;10.93;;;;;;;;;;8298654;28;20616;-63
2023/04/09 08:04:36;;;;;;;12.23;10.48;;;;;;;;;;8299199;28;20025;-63
2023/04/09 08:08:37;;;;;;;11.80;10.15;;;;;;;;;;8297584;28;20900;-63
2023/04/09 08:12:37;;;;;;;13.60;10.93;;;;;;;;;;8288685;28;20453;-63
2023/04/09 08:16:47;;;;;;;14.73;11.00;;;;;;;;;;8289185;28;20052;-63
2023/04/09 08:20:47;;;;;;;13.93;11.05;;;;;;;;;;8290502;28;20546;-63
2023/04/09 08:24:51;;;;;;;11.57;10.38;;;;;;;;;;8295915;28;20368;-63
2023/04/09 08:28:51;;;;;;;13.45;11.35;;;;;;;;;;8293782;28;20108;-63
2023/04/09 08:32:52;;;;;;;13.35;11.85;;;;;;;;;;8293864;28;20337;-63
2023/04/09 08:36:52;;;;;;;13.00;11.30;;;;;;;;;;8294400;28;20219;-63
2023/04/09 08:40:52;;;;;;;11.32;10.05;;;;;;;;;;8291930;28;20037;-63
2023/04/09 08:44:53;;;;;;;13.57;11.57;;;;;;;;;;8295589;28;20861;-63
2023/04/09 08:48:53;;;;;;;12.98;11.57;;;;;;;;;;8294514;28;20033;-63
2023/04/09 08:52:54;;;;;;;14.10;11.20;;;;;;;;;;8294241;28;20033;-63
2023/04/09 08:56:56;;;;;;;12.70;10.77;;;;;;;;;;8296304;28;20506;-63
2023/04/09 09:00:56;;;;;;;13.63;11.23;;;;;;;;;;8291933;28;20048;-63
2023/04/09 09:04:59;;;;;;;13.15;11.10;;;;;;;;;;8296016;28;20465;-63
2023/04/09 09:09:05;;;;;;;12.68;10.55;;;;;;;;;;8294300;28;20531;-63
2023/04/09 09:13:17;;;;;;;12.57;10.68;;;;;;;;;;8297382;28;20063;-63
2023/04/09 09:17:17;;;;;;;12.20;10.85;;;;;;;;;;8293368;28;20038;-63
2023/04/09 09:21:18;;;;;;;13.13;11.73;;;;;;;;;;8292928;28;20079;-63
2023/04/09 09:25:22;;;;;;;11.63;10.43;;;;;;;;;;8291107;28;20021;-63
2023/04/09 09:29:22;;;;;;;11.95;10.43;;;;;;;;;;8294874;28;20033;-63
2023/04/09 09:33:22;;;;;;;13.50;11.80;;;;;;;;;;8292999;28;20780;-63
2023/04/09 09:37:26;;;;;;;11.80;10.60;;;;;;;;;;8279707;28;20600;-63
2023/04/09 09:41:27;;;;;;;10.13;8.82;;;;;;;;;;8295249;28;20029;-63
2023/04/09 09:45:27;;;;;;;9.63;8.63;;;;;;;;;;8296883;28;20040;-63
2023/04/09 09:49:28;;;;;;;9.60;8.38;;;;;;;;;;8302914;28;20108;-63
2023/04/09 09:53:29;;;;;;;4.10;3.70;;;;;;;;;;8293949;28;20124;-64
2023/04/09 09:57:29;;;;;;;8.90;6.97;;;;;;;;;;8294723;28;20036;-63
2023/04/09 10:01:31;;;;;;;9.63;8.60;;;;;;;;;;8293314;28;21201;-65
2023/04/09 10:05:34;;;;;;;11.40;9.80;;;;;;;;;;8294613;28;20144;-63
2023/04/09 10:09:35;;;;;;;8.95;7.60;;;;;;;;;;8293527;28;20083;-63
2023/04/09 10:13:39;;;;;;;9.15;8.02;;;;;;;;;;8292497;28;20139;-63
2023/04/09 10:17:39;;;;;;;8.88;7.95;;;;;;;;;;8292952;28;20045;-64
2023/04/09 10:21:49;;;;;;;10.97;9.77;;;;;;;;;;8295752;28;20020;-63
2023/04/09 10:25:49;;;;;;;8.80;7.82;;;;;;;;;;8298440;28;20335;-63
2023/04/09 10:29:52;;;;;;;11.05;9.80;;;;;;;;;;8295749;28;20971;-63
2023/04/09 10:33:52;;;;;;;9.23;8.27;;;;;;;;;;8295386;28;20120;-63
2023/04/09 10:37:52;;;;;;;10.55;8.15;;;;;;;;;;8295964;28;20114;-63
2023/04/09 10:41:53;;;;;;;11.75;8.70;;;;;;;;;;8296549;28;20040;-64
2023/04/09 10:45:56;;;;;;;5.70;5.13;;;;;;;;;;8297616;28;20083;-63
2023/04/09 10:49:56;;;;;;;8.23;6.83;;;;;;;;;;8293246;28;20112;-63
2023/04/09 10:53:56;;;;;;;6.80;5.85;;;;;;;;;;8294677;28;20477;-63
2023/04/09 10:57:57;;;;;;;8.30;7.20;;;;;;;;;;8301531;28;20083;-63
2023/04/09 11:01:57;;;;;;;6.97;6.28;;;;;;;;;;8298562;28;20048;-63
2023/04/09 11:06:04;;;;;;;8.52;7.63;;;;;;;;;;8291722;28;20096;-63
2023/04/09 11:10:05;;;;;;;8.18;7.38;;;;;;;;;;8289118;28;20378;-63
2023/04/09 11:14:05;;;;;;;9.38;8.00;;;;;;;;;;8287243;28;20114;-63
2023/04/09 11:18:08;;;;;;;8.88;7.93;;;;;;;;;;8286161;28;20462;-63
2023/04/09 11:22:09;;;;;;;8.13;7.32;;;;;;;;;;8288993;28;20103;-63
2023/04/09 11:26:09;;;;;;;7.05;6.35;;;;;;;;;;8285293;28;20061;-63
2023/04/09 11:30:10;;;;;;;6.80;6.10;;;;;;;;;;8285658;28;20041;-63
2023/04/09 11:34:13;;;;;;;6.23;5.50;;;;;;;;;;8287573;28;20274;-63
2023/04/09 11:38:13;;;;;;;8.35;6.40;;;;;;;;;;8288608;28;20280;-67
2023/04/09 11:42:14;;;;;;;9.57;7.05;;;;;;;;;;8290460;28;20071;-63
2023/04/09 11:46:15;;;;;;;8.32;7.40;;;;;;;;;;8290798;28;20891;-63
2023/04/09 11:50:15;;;;;;;8.82;7.88;;;;;;;;;;8292855;28;20052;-63
2023/04/09 11:54:15;;;;;;;8.35;7.45;;;;;;;;;;8291425;28;20029;-63
2023/04/09 11:58:16;;;;;;;7.95;7.10;;;;;;;;;;8288992;28;20138;-63
2023/04/09 12:02:16;;;;;;;8.43;7.53;;;;;;;;;;8290804;28;20402;-63
2023/04/09 12:06:19;;;;;;;7.22;6.53;;;;;;;;;;8290350;28;20128;-63
2023/04/09 12:10:19;;;;;;;8.70;7.80;;;;;;;;;;8290402;28;20028;-63
2023/04/09 12:14:20;;;;;;;7.47;6.72;;;;;;;;;;8289750;28;20029;-63
2023/04/09 12:18:22;;;;;;;9.02;6.97;;;;;;;;;;8289641;28;20034;-63
2023/04/09 12:22:22;;;;;;;8.20;7.32;;;;;;;;;;8290119;28;20025;-63
2023/04/09 12:26:22;;;;;;;7.90;7.13;;;;;;;;;;8289271;28;20067;-63
2023/04/09 12:30:23;;;;;;;9.18;8.18;;;;;;;;;;8272277;28;20050;-63
2023/04/09 12:34:23;;;;;;;8.27;7.38;;;;;;;;;;8275537;28;20806;-63
2023/04/09 12:38:23;;;;;;;8.90;8.00;;;;;;;;;;8290000;28;20025;-63
2023/04/09 12:42:23;;;;;;;8.75;7.60;;;;;;;;;;8289013;28;20021;-63
2023/04/09 12:46:24;;;;;;;8.52;7.28;;;;;;;;;;8291929;28;20030;-63
2023/04/09 12:50:24;;;;;;;8.32;7.40;;;;;;;;;;8290453;28;20310;-63
2023/04/09 12:54:25;;;;;;;8.15;7.32;;;;;;;;;;8289075;28;20079;-63
2023/04/09 12:58:25;;;;;;;7.95;7.15;;;;;;;;;;8288916;28;20235;-63
2023/04/09 13:02:25;;;;;;;8.20;6.88;;;;;;;;;;8288099;28;20492;-63
2023/04/09 13:06:26;;;;;;;7.57;6.60;;;;;;;;;;8291094;28;20030;-63
2023/04/09 13:10:27;;;;;;;7.45;6.75;;;;;;;;;;8293336;28;20273;-63
2023/04/09 13:14:28;;;;;;;7.10;6.40;;;;;;;;;;8296167;28;20111;-63
2023/04/09 13:18:28;;;;;;;7.30;6.50;;;;;;;;;;8296074;28;20042;-63
2023/04/09 13:22:28;;;;;;;7.72;6.88;;;;;;;;;;8295344;28;20611;-63
2023/04/09 13:26:29;;;;;;;8.05;7.25;;;;;;;;;;8294775;28;20025;-63
2023/04/09 13:30:30;;;;;;;6.57;5.88;;;;;;;;;;8294147;28;20119;-63
2023/04/09 13:34:30;;;;;;;9.13;6.43;;;;;;;;;;8295301;28;20022;-63
2023/04/09 13:38:30;;;;;;;7.90;7.10;;;;;;;;;;8294200;28;21608;-63
2023/04/09 13:42:30;;;;;;;7.43;6.63;;;;;;;;;;8295728;28;21571;-63
2023/04/09 13:46:30;;;;;;;7.37;6.57;;;;;;;;;;8294974;28;20068;-63
2023/04/09 13:50:31;;;;;;;7.07;6.33;;;;;;;;;;8293958;28;20592;-63
2023/04/09 13:54:31;;;;;;;7.57;6.78;;;;;;;;;;8294177;28;20568;-62
2023/04/09 13:58:31;;;;;;;7.72;6.53;;;;;;;;;;8291791;28;20484;-62
2023/04/09 14:02:32;;;;;;;7.85;6.88;;;;;;;;;;8293563;28;20089;-62
2023/04/09 14:06:32;;;;;;;6.82;6.13;;;;;;;;;;8291618;28;20017;-62
2023/04/09 14:10:32;;;;;;;6.38;5.78;;;;;;;;;;8293406;28;20040;-62
2023/04/09 14:14:32;;;;;;;7.90;6.05;;;;;;;;;;8292472;28;20032;-62
2023/04/09 14:18:33;;;;;;;5.85;5.20;;;;;;;;;;8291397;28;20037;-62
2023/04/09 14:22:33;;;;;;;6.68;5.82;;;;;;;;;;8293274;28;20025;-62
2023/04/09 14:26:33;;;;;;;7.72;6.10;;;;;;;;;;8293330;28;20029;-62
2023/04/09 14:30:33;;;;;;;6.55;5.95;;;;;;;;;;8290096;28;20609;-63
2023/04/09 14:34:33;;;;;;;6.85;6.15;;;;;;;;;;8292746;28;20096;-63
2023/04/09 14:38:34;;;;;;;6.75;6.05;;;;;;;;;;8293316;28;20531;-63
2023/04/09 14:42:34;;;;;;;6.43;5.82;;;;;;;;;;8289943;28;20431;-62
2023/04/09 14:46:35;;;;;;;6.15;5.55;;;;;;;;;;8291571;28;20037;-62
2023/04/09 14:50:35;;;;;;;5.38;4.88;;;;;;;;;;8291664;28;20675;-62
2023/04/09 14:54:36;;;;;;;6.20;5.60;;;;;;;;;;8292285;28;20368;-62
2023/04/09 14:58:36;;;;;;;5.47;4.97;;;;;;;;;;8290962;28;20498;-62
2023/04/09 15:02:40;;;;;;;5.90;5.30;;;;;;;;;;8292100;28;20041;-62
2023/04/09 15:06:40;;;;;;;6.30;5.70;;;;;;;;;;8291325;28;20461;-62
2023/04/09 15:10:40;;;;;;;5.40;4.88;;;;;;;;;;8291115;28;20025;-63
2023/04/09 15:14:40;;;;;;;5.68;5.13;;;;;;;;;;8290789;28;20099;-62
2023/04/09 15:18:40;;;;;;;5.13;4.63;;;;;;;;;;8289682;28;20036;-62
2023/04/09 15:22:40;;;;;;;5.07;4.57;;;;;;;;;;8292085;28;20066;-62
2023/04/09 15:26:41;;;;;;;4.78;4.22;;;;;;;;;;8290479;28;20025;-63
2023/04/09 15:30:41;;;;;;;4.93;4.22;;;;;;;;;;8291500;28;20043;-62
2023/04/09 15:34:41;;;;;;;4.50;4.10;;;;;;;;;;8289294;28;20069;-62
2023/04/09 15:38:41;;;;;;;3.92;3.63;;;;;;;;;;8290407;28;20017;-62
2023/04/09 15:42:41;;;;;;;4.80;4.30;;;;;;;;;;8291301;28;20540;-63
2023/04/09 15:46:41;;;;;;;5.88;5.28;;;;;;;;;;8286897;28;20148;-62
2023/04/09 15:50:42;;;;;;;4.90;4.40;;;;;;;;;;8291003;28;20013;-62
2023/04/09 15:54:42;;;;;;;4.75;4.32;;;;;;;;;;8291382;28;20028;-62
2023/04/09 15:58:42;;;;;;;5.60;4.55;;;;;;;;;;8290737;28;20029;-62
2023/04/09 16:02:42;;;;;;;4.90;4.35;;;;;;;;;;8289407;28;20529;-62
2023/04/09 16:06:42;;;;;;;5.50;4.80;;;;;;;;;;8290232;28;20052;-62
2023/04/09 16:10:42;;;;;;;5.22;4.72;;;;;;;;;;8290254;28;20024;-62
2023/04/09 16:14:43;;;;;;;4.50;4.10;;;;;;;;;;8289080;28;20090;-62
2023/04/09 16:18:43;;;;;;;4.68;4.22;;;;;;;;;;8288609;28;20670;-62
2023/04/09 16:22:43;;;;;;;3.95;3.55;;;;;;;;;;8286931;28;20026;-62
2023/04/09 16:26:44;;;;;;;4.70;4.20;;;;;;;;;;8289917;28;20020;-62
2023/04/09 16:30:44;;;;;;;4.35;3.90;;;;;;;;;;8288443;28;20237;-62
2023/04/09 16:34:44;;;;;;;4.07;3.67;;;;;;;;;;8289902;28;20643;-62
2023/04/09 16:38:45;;;;;;;4.50;4.10;;;;;;;;;;8290241;28;20017;-62
2023/04/09 16:42:45;;;;;;;5.07;3.88;;;;;;;;;;8293253;28;20033;-62
2023/04/09 16:46:45;;;;;;;4.00;3.60;;;;;;;;;;8295700;28;20081;-62
2023/04/09 16:50:45;;;;;;;5.50;3.63;;;;;;;;;;8295262;28;20017;-62
2023/04/09 16:54:45;;;;;;;4.53;4.07;;;;;;;;;;8292719;28;20018;-62
2023/04/09 16:58:45;;;;;;;4.40;3.72;;;;;;;;;;8294084;28;20017;-62
2023/04/09 17:02:46;;;;;;;4.40;4.00;;;;;;;;;;8295743;28;20128;-62
2023/04/09 17:06:46;;;;;;;4.85;3.80;;;;;;;;;;8292670;28;20028;-62
2023/04/09 17:10:46;;;;;;;4.95;4.10;;;;;;;;;;8293756;28;20103;-62
2023/04/09 17:14:46;;;;;;;3.75;3.10;;;;;;;;;;8293230;28;20025;-62
2023/04/09 17:18:46;;;;;;;3.80;3.17;;;;;;;;;;8293485;28;20032;-62
2023/04/09 17:22:47;;;;;;;5.00;3.70;;;;;;;;;;8294369;28;20444;-62
2023/04/09 17:26:47;;;;;;;5.05;3.65;;;;;;;;;;8292152;28;20756;-62
2023/04/09 17:30:47;;;;;;;4.97;4.20;;;;;;;;;;8291772;28;20553;-62
2023/04/09 17:34:51;;;;;;;5.45;4.22;;;;;;;;;;8293903;28;20021;-61
2023/04/09 17:38:51;;;;;;;4.78;3.97;;;;;;;;;;8292782;28;20029;-61
2023/04/09 17:42:51;;;;;;;4.67;4.10;;;;;;;;;;8293314;28;20029;-61
2023/04/09 17:46:52;;;;;;;6.70;4.25;;;;;;;;;;8293985;28;20657;-61
2023/04/09 17:50:52;;;;;;;4.38;3.70;;;;;;;;;;8291886;28;20648;-61
2023/04/09 17:54:52;;;;;;;4.18;3.40;;;;;;;;;;8291427;28;20513;-61
2023/04/09 17:58:53;;;;;;;3.97;3.55;;;;;;;;;;8291664;28;20128;-61
2023/04/09 18:02:53;;;;;;;4.03;3.53;;;;;;;;;;8292110;28;20036;-61
2023/04/09 18:06:53;;;;;;;3.80;3.47;;;;;;;;;;8293443;28;20022;-61
2023/04/09 18:10:54;;;;;;;4.57;4.00;;;;;;;;;;8291121;28;20037;-61
2023/04/09 18:14:55;;;;;;;4.70;3.90;;;;;;;;;;8291053;28;20843;-61
2023/04/09 18:18:55;;;;;;;4.77;3.97;;;;;;;;;;8284105;28;20154;-62
2023/04/09 18:22:55;;;;;;;5.10;4.60;;;;;;;;;;8287381;28;20699;-61
2023/04/09 18:26:56;;;;;;;4.75;4.13;;;;;;;;;;8286161;28;20691;-61
2023/04/09 18:30:56;;;;;;;4.45;3.88;;;;;;;;;;8293094;28;20029;-61
2023/04/09 18:34:56;;;;;;;4.88;3.90;;;;;;;;;;8294186;28;20100;-62
2023/04/09 18:38:57;;;;;;;4.22;3.83;;;;;;;;;;8285621;28;20552;-61
2023/04/09 18:42:57;;;;;;;6.85;4.53;;;;;;;;;;8284366;28;20445;-61
2023/04/09 18:46:58;;;;;;;4.10;3.70;;;;;;;;;;8287031;28;20099;-61
2023/04/09 18:51:00;;;;;;;3.95;3.47;;;;;;;;;;8286662;28;20815;-61
2023/04/09 18:55:00;;;;;;;4.40;3.67;;;;;;;;;;8287142;28;20060;-62
2023/04/09 18:59:00;;;;;;;6.95;4.45;;;;;;;;;;8284618;28;20088;-61
2023/04/09 19:03:01;;;;;;;5.28;3.95;;;;;;;;;;8288454;28;20037;-61
2023/04/09 19:07:01;;;;;;;4.80;3.88;;;;;;;;;;8278197;28;20095;-61
2023/04/09 19:11:01;;;;;;;4.77;4.00;;;;;;;;;;8282728;28;20473;-61
2023/04/09 19:15:03;;;;;;;3.60;3.25;;;;;;;;;;8288911;28;20275;-62
2023/04/09 19:19:03;;;;;;;5.57;4.03;;;;;;;;;;8289875;28;20037;-61
2023/04/09 19:23:03;;;;;;;5.40;4.30;;;;;;;;;;8285316;28;20258;-61
2023/04/09 19:27:08;;;;;;;5.40;4.10;;;;;;;;;;8284912;28;20577;-61
2023/04/09 19:31:08;;;;;;;7.45;5.07;;;;;;;;;;8286720;28;20268;-61
2023/04/09 19:35:09;;;;;;;5.55;4.20;;;;;;;;;;8285599;28;20133;-61
2023/04/09 19:39:09;;;;;;;10.18;5.75;;;;;;;;;;8284865;28;20040;-61
2023/04/09 19:43:10;;;;;;;12.15;7.38;;;;;;;;;;8285067;28;20043;-61
2023/04/09 19:47:10;;;;;;;9.07;6.28;;;;;;;;;;8284521;28;20121;-61
2023/04/09 19:51:20;;;;;;;9.23;6.05;;;;;;;;;;8287535;28;20029;-61
2023/04/09 19:55:21;;;;;;;8.90;5.45;;;;;;;;;;8292079;28;20461;-61
2023/04/09 19:59:21;;;;;;;9.73;5.60;;;;;;;;;;8286017;28;20429;-61
2023/04/09 20:03:21;;;;;;;13.75;7.25;;;;;;;;;;8291776;28;20047;-61
2023/04/09 20:07:21;;;;;;;9.98;6.40;;;;;;;;;;8284901;28;20294;-61
2023/04/09 20:11:21;;;;;;;8.43;6.13;;;;;;;;;;8285639;28;20557;-61
2023/04/09 20:15:22;;;;;;;8.85;5.80;;;;;;;;;;8284873;28;20029;-61
2023/04/09 20:19:22;;;;;;;7.82;5.47;;;;;;;;;;8284685;28;20437;-61
2023/04/09 20:23:22;;;;;;;7.72;5.70;;;;;;;;;;8284549;28;20025;-61
2023/04/09 20:27:22;;;;;;;6.90;5.35;;;;;;;;;;8283780;28;20550;-61
2023/04/09 20:31:22;;;;;;;6.53;4.30;;;;;;;;;;8284381;28;20505;-61
2023/04/09 20:35:23;;;;;;;6.82;5.32;;;;;;;;;;8283379;28;20021;-61
2023/04/09 20:39:26;;;;;;;5.97;4.50;;;;;;;;;;8292080;28;20128;-61
2023/04/09 20:43:26;;;;;;;6.27;4.77;;;;;;;;;;8288074;28;20036;-61
2023/04/09 20:47:26;;;;;;;6.10;4.45;;;;;;;;;;8283139;28;20847;-61
2023/04/09 20:51:27;;;;;;;6.90;4.32;;;;;;;;;;8287503;28;20026;-60
2023/04/09 20:55:27;;;;;;;6.10;4.85;;;;;;;;;;8295872;28;20033;-61
2023/04/09 20:59:27;;;;;;;5.50;4.47;;;;;;;;;;8291977;28;20037;-61
2023/04/09 21:03:28;;;;;;;6.05;4.13;;;;;;;;;;8295347;28;20045;-61
2023/04/09 21:07:28;;;;;;;7.32;4.43;;;;;;;;;;8293209;28;20017;-61
2023/04/09 21:11:29;;;;;;;4.47;3.78;;;;;;;;;;8292404;28;20499;-61
2023/04/09 21:15:29;;;;;;;7.47;5.97;;;;;;;;;;8296045;28;20119;-61
2023/04/09 21:19:29;;;;;;;6.57;5.57;;;;;;;;;;8294678;28;20022;-60
2023/04/09 21:23:29;;;;;;;7.47;5.78;;;;;;;;;;8294346;28;20079;-61
2023/04/09 21:27:30;;;;;;;7.47;5.05;;;;;;;;;;8295404;28;20033;-61
2023/04/09 21:31:30;;;;;;;9.00;6.13;;;;;;;;;;8302011;28;20064;-61
2023/04/09 21:35:30;;;;;;;9.75;5.95;;;;;;;;;;8284733;28;20053;-61
2023/04/09 21:39:30;;;;;;;11.82;6.03;;;;;;;;;;8300216;28;20406;-61
2023/04/09 21:43:30;;;;;;;9.50;6.00;;;;;;;;;;8301887;28;20029;-61
2023/04/09 21:47:31;;;;;;;7.70;5.45;;;;;;;;;;8300959;28;20044;-61
2023/04/09 21:51:31;;;;;;;8.40;5.43;;;;;;;;;;8301231;28;20044;-60
2023/04/09 21:55:31;;;;;;;9.18;6.15;;;;;;;;;;8303171;28;20029;-61
2023/04/09 21:59:35;;;;;;;10.68;6.57;;;;;;;;;;8301135;28;20017;-61
2023/04/09 22:03:35;;;;;;;11.70;7.00;;;;;;;;;;8299058;28;20029;-61
2023/04/09 22:07:36;;;;;;;8.48;5.93;;;;;;;;;;8301082;28;20275;-61
2023/04/09 22:11:39;;;;;;;7.82;5.30;;;;;;;;;;8290053;28;20607;-61
2023/04/09 22:15:40;;;;;;;7.60;5.72;;;;;;;;;;8300447;28;20045;-61
2023/04/09 22:19:40;;;;;;;7.78;5.40;;;;;;;;;;8300792;28;20029;-60
2023/04/09 22:23:41;;;;;;;6.68;4.85;;;;;;;;;;8302521;28;20060;-61
2023/04/09 22:27:42;;;;;;;7.90;5.43;;;;;;;;;;8302197;28;20132;-61
2023/04/09 22:31:42;;;;;;;6.50;5.22;;;;;;;;;;8300732;28;20283;-61
2023/04/09 22:35:42;;;;;;;8.93;6.15;;;;;;;;;;8299759;28;20025;-61
2023/04/09 22:39:42;;;;;;;12.52;6.97;;;;;;;;;;8300936;28;20070;-61
2023/04/09 22:43:43;;;;;;;10.10;6.20;;;;;;;;;;8291757;28;20647;-60
2023/04/09 22:47:43;;;;;;;8.75;5.63;;;;;;;;;;8299796;28;20037;-61
2023/04/09 22:51:43;;;;;;;9.70;5.70;;;;;;;;;;8300044;28;20421;-61
2023/04/09 22:55:45;;;;;;;11.70;6.30;;;;;;;;;;8301113;28;20579;-60
2023/04/09 22:59:45;;;;;;;7.90;5.53;;;;;;;;;;8297916;28;20041;-61
2023/04/09 23:03:46;;;;;;;10.77;6.25;;;;;;;;;;8299672;28;20486;-61
2023/04/09 23:07:46;;;;;;;15.27;7.88;;;;;;;;;;8300054;28;20022;-61
2023/04/09 23:11:47;;;;;;;14.05;8.25;;;;;;;;;;8300295;28;20060;-60
2023/04/09 23:15:47;;;;;;;12.60;7.32;;;;;;;;;;8300855;28;20125;-61
2023/04/09 23:19:47;;;;;;;12.77;7.85;;;;;;;;;;8300635;28;20029;-61
2023/04/09 23:23:47;;;;;;;11.63;6.80;;;;;;;;;;8300208;28;20893;-61
2023/04/09 23:27:48;;;;;;;9.67;6.13;;;;;;;;;;8300827;28;20152;-60
2023/04/09 23:31:48;;;;;;;7.40;4.88;;;;;;;;;;8288663;28;20286;-61
2023/04/09 23:35:49;;;;;;;7.57;5.05;;;;;;;;;;8300425;28;20020;-61
2023/04/09 23:39:49;;;;;;;6.60;5.03;;;;;;;;;;8300002;28;20025;-61
2023/04/09 23:43:49;;;;;;;8.18;4.90;;;;;;;;;;8297994;28;20103;-61
2023/04/09 23:47:50;;;;;;;5.93;4.85;;;;;;;;;;8299139;28;21016;-61
2023/04/09 23:51:50;;;;;;;5.43;4.60;;;;;;;;;;8299207;28;20037;-61
2023/04/09 23:55:51;;;;;;;5.20;4.50;;;;;;;;;;8297990;28;20150;-60